Time;durP1;ratioP1;P1;durP2;ratioP2;P2;SDS_P1;SDS_P2;PMS_P1;PMS_P2;Temp;Humidity;BMP_temperature;BMP_pressure;BME280_temperature;BME280_humidity;BME280_pressure;Samples;Min_cycle;Max_cycle;Signal;HPM_P1;HPM_P2
2022/09/28 00:01:30;;;;;;;34.33;18.70;;;9.20;99.90;;;;;;5080263;28;20307;-72
2022/09/28 00:03:58;;;;;;;33.77;19.17;;;9.30;99.90;;;;;;5080547;28;20206;-72
2022/09/28 00:06:28;;;;;;;32.90;18.97;;;9.20;99.90;;;;;;5078979;28;20213;-72
2022/09/28 00:08:56;;;;;;;33.20;18.57;;;9.30;99.90;;;;;;5076390;28;20748;-71
2022/09/28 00:11:27;;;;;;;35.20;18.03;;;9.30;99.90;;;;;;5059702;28;20606;-71
2022/09/28 00:13:56;;;;;;;33.33;19.30;;;9.30;99.90;;;;;;5078493;28;20204;-72
2022/09/28 00:16:27;;;;;;;31.57;18.37;;;9.30;99.90;;;;;;5075954;28;20318;-71
2022/09/28 00:18:54;;;;;;;35.07;19.33;;;9.30;99.90;;;;;;5063747;28;20227;-71
2022/09/28 00:21:28;;;;;;;34.57;17.80;;;9.30;99.90;;;;;;5077275;28;20670;-71
2022/09/28 00:24:17;;;;;;;31.60;17.13;;;9.30;99.90;;;;;;5073564;28;20267;-71
2022/09/28 00:26:53;;;;;;;28.27;16.33;;;9.30;99.90;;;;;;5075641;28;20209;-72
2022/09/28 00:29:21;;;;;;;27.23;16.07;;;9.30;99.90;;;;;;5081833;28;20192;-72
2022/09/28 00:31:51;;;;;;;29.23;17.00;;;9.30;99.90;;;;;;5074450;28;20298;-72
2022/09/28 00:34:19;;;;;;;31.17;18.80;;;9.30;99.90;;;;;;5080446;28;20232;-71
2022/09/28 00:36:47;;;;;;;25.07;14.73;;;9.20;99.90;;;;;;5063281;28;20220;-71
2022/09/28 00:39:15;;;;;;;29.13;17.50;;;9.10;99.90;;;;;;5062768;28;20205;-72
2022/09/28 00:41:45;;;;;;;32.43;17.73;;;9.00;99.90;;;;;;5075045;28;20200;-71
2022/09/28 00:44:24;;;;;;;32.43;17.10;;;9.00;99.90;;;;;;5073937;28;20239;-72
2022/09/28 00:47:06;;;;;;;30.33;17.63;;;8.90;99.90;;;;;;5074320;28;20224;-72
2022/09/28 00:49:44;;;;;;;31.57;17.47;;;8.80;99.90;;;;;;5073754;28;20209;-73
2022/09/28 00:52:17;;;;;;;35.20;19.47;;;8.70;99.90;;;;;;5081276;28;20297;-71
2022/09/28 00:54:46;;;;;;;34.40;19.13;;;8.60;99.90;;;;;;5080042;28;20627;-73
2022/09/28 00:57:14;;;;;;;33.97;18.97;;;8.60;99.90;;;;;;5081140;28;20256;-72
2022/09/28 00:59:42;;;;;;;32.80;18.60;;;8.50;99.90;;;;;;5077488;28;20565;-71
2022/09/28 01:02:09;;;;;;;28.80;16.53;;;8.50;99.90;;;;;;5077851;28;20292;-72
2022/09/28 01:04:38;;;;;;;32.03;17.10;;;8.40;99.90;;;;;;5076578;28;20901;-72
2022/09/28 01:07:07;;;;;;;37.10;19.50;;;8.40;99.90;;;;;;5082817;28;20322;-72
2022/09/28 01:09:37;;;;;;;35.40;18.37;;;8.40;99.90;;;;;;5063456;28;20195;-72
2022/09/28 01:12:06;;;;;;;32.80;17.23;;;8.40;99.90;;;;;;5079187;28;20278;-72
2022/09/28 01:14:33;;;;;;;41.93;20.33;;;8.30;99.90;;;;;;5074202;28;20211;-72
2022/09/28 01:17:07;;;;;;;36.97;18.87;;;8.30;99.90;;;;;;5080537;28;20220;-72
2022/09/28 01:19:58;;;;;;;42.03;19.53;;;8.30;99.90;;;;;;5076729;28;20211;-72
2022/09/28 01:22:33;;;;;;;37.17;19.57;;;8.30;99.90;;;;;;5078782;28;20225;-71
2022/09/28 01:25:36;;;;;;;38.97;19.07;;;8.30;99.90;;;;;;5076895;28;20248;-71
2022/09/28 01:28:12;;;;;;;38.33;20.03;;;8.20;99.90;;;;;;5035738;28;20225;-71
2022/09/28 01:30:55;;;;;;;43.07;19.73;;;8.20;99.90;;;;;;5082148;28;20205;-72
2022/09/28 01:33:26;;;;;;;43.47;20.80;;;8.20;99.90;;;;;;5080573;28;20767;-72
2022/09/28 01:36:00;;;;;;;46.50;21.07;;;8.20;99.90;;;;;;5080434;28;20971;-71
2022/09/28 01:38:46;;;;;;;39.40;20.30;;;8.30;99.90;;;;;;5076835;28;20231;-71
2022/09/28 01:41:18;;;;;;;42.53;19.97;;;8.30;99.90;;;;;;5081036;28;20221;-72
2022/09/28 01:43:50;;;;;;;41.07;21.03;;;8.40;99.90;;;;;;5075811;28;20204;-71
2022/09/28 01:46:27;;;;;;;47.23;20.80;;;8.40;99.90;;;;;;5079423;28;20296;-71
2022/09/28 01:48:57;;;;;;;45.00;20.10;;;8.40;99.90;;;;;;5080832;28;20289;-71
2022/09/28 01:51:48;;;;;;;41.13;21.67;;;8.50;99.90;;;;;;5079412;28;20246;-72
2022/09/28 01:54:43;;;;;;;49.87;22.23;;;8.50;99.90;;;;;;5082334;28;20243;-71
2022/09/28 01:57:20;;;;;;;39.27;20.40;;;8.40;99.90;;;;;;5073403;28;20235;-71
2022/09/28 01:59:59;;;;;;;45.70;20.57;;;8.50;99.90;;;;;;5071216;28;20299;-71
2022/09/28 02:02:32;;;;;;;39.67;19.27;;;8.50;99.90;;;;;;5082794;28;20299;-72
2022/09/28 02:05:26;;;;;;;46.33;21.20;;;8.50;99.90;;;;;;5059918;28;20794;-72
2022/09/28 02:08:06;;;;;;;35.97;18.33;;;8.50;99.90;;;;;;5075348;28;20217;-72
2022/09/28 02:10:42;;;;;;;39.23;19.33;;;8.50;99.90;;;;;;5084597;28;20276;-71
2022/09/28 02:13:29;;;;;;;37.43;17.00;;;8.60;99.90;;;;;;5079106;28;20215;-71
2022/09/28 02:16:03;;;;;;;43.87;19.00;;;8.50;99.90;;;;;;5081797;28;20343;-72
2022/09/28 02:18:31;;;;;;;36.43;17.67;;;8.50;99.90;;;;;;5067638;28;20221;-72
2022/09/28 02:21:21;;;;;;;36.93;18.27;;;8.50;99.90;;;;;;5080036;28;20331;-72
2022/09/28 02:23:55;;;;;;;37.33;19.07;;;8.50;99.90;;;;;;5079440;28;20247;-71
2022/09/28 02:26:29;;;;;;;34.33;16.33;;;8.50;99.90;;;;;;5080395;28;20314;-72
2022/09/28 02:28:57;;;;;;;34.60;17.80;;;8.50;99.90;;;;;;5076916;28;20236;-71
2022/09/28 02:31:25;;;;;;;34.27;17.10;;;8.50;99.90;;;;;;5085143;28;20216;-71
2022/09/28 02:33:55;;;;;;;39.50;18.00;;;8.50;99.90;;;;;;5060066;28;20241;-72
2022/09/28 02:36:24;;;;;;;33.07;17.63;;;8.60;99.90;;;;;;5078007;28;20670;-71
2022/09/28 02:38:52;;;;;;;33.70;17.20;;;8.70;99.90;;;;;;5078518;28;20209;-72
2022/09/28 02:41:24;;;;;;;31.83;16.07;;;8.70;99.90;;;;;;5080959;28;20645;-72
2022/09/28 02:44:13;;;;;;;32.40;16.50;;;8.70;99.90;;;;;;5085245;28;20290;-71
2022/09/28 02:46:57;;;;;;;28.63;15.67;;;8.70;99.90;;;;;;5066216;28;20330;-72
2022/09/28 02:49:48;;;;;;;26.03;14.73;;;8.70;99.90;;;;;;5065318;28;20395;-71
2022/09/28 02:52:49;;;;;;;28.43;15.53;;;8.70;99.90;;;;;;5080629;28;20647;-72
2022/09/28 02:55:43;;;;;;;29.87;14.70;;;8.70;99.90;;;;;;5087374;28;20226;-71
2022/09/28 02:58:29;;;;;;;26.30;13.70;;;8.70;99.90;;;;;;5048544;28;20266;-71
2022/09/28 03:01:08;;;;;;;25.27;13.00;;;8.70;99.90;;;;;;5065448;28;20257;-71
2022/09/28 03:03:52;;;;;;;23.67;13.73;;;8.80;99.90;;;;;;5081692;28;20679;-71
2022/09/28 03:06:29;;;;;;;21.10;11.80;;;8.80;99.90;;;;;;5080890;28;20792;-71
2022/09/28 03:09:25;;;;;;;19.87;11.50;;;8.80;99.90;;;;;;5076712;28;20648;-70
2022/09/28 03:12:00;;;;;;;16.13;10.53;;;8.80;99.90;;;;;;5066561;28;20303;-72
2022/09/28 03:14:27;;;;;;;19.30;11.60;;;8.80;99.90;;;;;;5075214;28;20212;-71
2022/09/28 03:16:54;;;;;;;18.37;11.00;;;8.80;99.90;;;;;;5080669;28;20220;-72
2022/09/28 03:19:25;;;;;;;19.00;10.53;;;8.80;99.90;;;;;;5078049;28;20754;-71
2022/09/28 03:21:53;;;;;;;19.53;11.13;;;8.90;99.90;;;;;;5080239;28;20566;-72
2022/09/28 03:24:20;;;;;;;16.40;10.27;;;8.90;99.90;;;;;;5079825;28;20231;-72
2022/09/28 03:26:47;;;;;;;17.50;10.93;;;8.90;99.90;;;;;;5060574;28;20237;-72
2022/09/28 03:29:14;;;;;;;16.63;10.97;;;8.90;99.90;;;;;;5079070;28;20261;-71
2022/09/28 03:31:44;;;;;;;19.00;11.17;;;8.90;99.90;;;;;;5078291;28;20230;-71
2022/09/28 03:34:11;;;;;;;19.13;10.87;;;8.90;99.90;;;;;;5069485;28;20328;-72
2022/09/28 03:36:38;;;;;;;18.23;10.20;;;8.90;99.90;;;;;;5079135;28;20318;-71
2022/09/28 03:39:05;;;;;;;16.50;10.67;;;8.90;99.90;;;;;;5076430;28;20643;-72
2022/09/28 03:41:32;;;;;;;15.63;9.93;;;8.90;99.90;;;;;;5074665;28;20208;-71
2022/09/28 03:44:00;;;;;;;16.83;10.33;;;8.90;99.90;;;;;;5079843;28;20282;-70
2022/09/28 03:46:27;;;;;;;18.13;10.03;;;8.90;99.90;;;;;;5072300;28;20232;-72
2022/09/28 03:48:57;;;;;;;17.20;10.83;;;8.90;99.90;;;;;;5066237;28;20298;-71
2022/09/28 03:51:24;;;;;;;19.20;11.00;;;8.90;99.90;;;;;;5062162;28;20750;-72
2022/09/28 03:53:51;;;;;;;16.60;9.70;;;8.90;99.90;;;;;;5077262;28;20653;-72
2022/09/28 03:56:20;;;;;;;16.33;10.33;;;8.90;99.90;;;;;;5061868;28;20242;-71
2022/09/28 03:58:47;;;;;;;18.67;10.40;;;8.90;99.90;;;;;;5082340;28;20683;-71
2022/09/28 04:01:15;;;;;;;18.10;10.23;;;8.90;99.90;;;;;;5081148;28;20688;-70
2022/09/28 04:03:44;;;;;;;17.33;10.10;;;8.80;99.90;;;;;;5065887;28;20223;-71
2022/09/28 04:06:13;;;;;;;20.70;11.57;;;8.80;99.90;;;;;;5067024;28;20228;-72
2022/09/28 04:08:39;;;;;;;20.67;11.33;;;8.80;99.90;;;;;;5070549;28;20210;-71
2022/09/28 04:11:06;;;;;;;17.47;10.97;;;8.80;99.90;;;;;;5082978;28;20213;-72
2022/09/28 04:13:33;;;;;;;20.33;11.43;;;8.80;99.90;;;;;;5081599;28;20244;-71
2022/09/28 04:16:00;;;;;;;18.87;10.77;;;8.80;99.90;;;;;;5080544;28;20217;-71
2022/09/28 04:18:28;;;;;;;17.50;11.13;;;8.80;99.90;;;;;;5077569;28;20210;-72
2022/09/28 04:21:06;;;;;;;19.53;11.60;;;8.80;99.90;;;;;;5065658;28;20215;-71
2022/09/28 04:23:35;;;;;;;18.07;11.00;;;8.80;99.90;;;;;;5082999;28;20682;-71
2022/09/28 04:26:09;;;;;;;20.90;10.50;;;8.70;99.90;;;;;;5079874;28;20351;-71
2022/09/28 04:31:22;;;;;;;21.07;10.87;;;8.80;99.90;;;;;;5077246;28;20245;-70
2022/09/28 04:33:49;;;;;;;17.77;10.53;;;8.70;99.90;;;;;;5062415;28;20241;-72
2022/09/28 04:36:18;;;;;;;19.67;9.80;;;8.70;99.90;;;;;;5079572;28;20197;-71
2022/09/28 04:38:45;;;;;;;16.33;9.30;;;8.70;99.90;;;;;;5075266;28;20228;-70
2022/09/28 04:41:22;;;;;;;19.30;10.27;;;8.70;99.90;;;;;;5062143;28;20226;-72
2022/09/28 04:43:49;;;;;;;15.70;9.53;;;8.80;99.90;;;;;;5082456;28;20303;-71
2022/09/28 04:46:17;;;;;;;16.20;10.07;;;8.60;99.90;;;;;;5080220;28;20311;-71
2022/09/28 04:48:44;;;;;;;17.13;10.57;;;8.60;99.90;;;;;;5084089;28;20211;-72
2022/09/28 04:51:11;;;;;;;16.27;9.40;;;8.50;99.90;;;;;;5078076;28;20306;-72
2022/09/28 04:53:39;;;;;;;19.23;9.70;;;8.50;99.90;;;;;;5074412;28;20234;-72
2022/09/28 04:56:12;;;;;;;17.87;10.17;;;8.50;99.90;;;;;;5086262;28;20688;-71
2022/09/28 04:58:40;;;;;;;21.63;10.57;;;8.50;99.90;;;;;;5077293;28;20223;-72
2022/09/28 05:01:11;;;;;;;18.23;9.13;;;8.50;99.90;;;;;;5060956;28;20220;-72
2022/09/28 05:03:38;;;;;;;15.60;10.30;;;8.50;99.90;;;;;;5071523;28;20233;-71
2022/09/28 05:06:05;;;;;;;19.43;10.37;;;8.50;99.90;;;;;;5055558;28;20232;-71
2022/09/28 05:08:34;;;;;;;20.87;10.63;;;8.50;99.90;;;;;;5062739;28;20615;-71
2022/09/28 05:11:03;;;;;;;14.83;9.40;;;8.40;99.90;;;;;;5063680;28;20341;-71
2022/09/28 05:13:31;;;;;;;18.30;10.17;;;8.40;99.90;;;;;;5074411;28;20257;-71
2022/09/28 05:15:58;;;;;;;17.07;10.60;;;8.40;99.90;;;;;;5057000;28;20231;-72
2022/09/28 05:18:31;;;;;;;17.07;9.53;;;8.40;99.90;;;;;;5076361;28;20524;-71
2022/09/28 05:20:58;;;;;;;17.73;9.87;;;8.40;99.90;;;;;;5084244;28;20263;-72
2022/09/28 05:23:25;;;;;;;15.63;9.03;;;8.40;99.90;;;;;;5082579;28;20295;-71
2022/09/28 05:25:52;;;;;;;13.97;9.70;;;8.40;99.90;;;;;;5075638;28;20239;-70
2022/09/28 05:28:24;;;;;;;17.40;9.07;;;8.40;99.90;;;;;;5074459;28;20211;-72
2022/09/28 05:30:52;;;;;;;15.63;9.27;;;8.40;99.90;;;;;;5075734;28;20321;-70
2022/09/28 05:33:19;;;;;;;17.37;9.47;;;8.30;99.90;;;;;;5081061;28;20229;-71
2022/09/28 05:35:46;;;;;;;17.27;10.03;;;8.30;99.90;;;;;;5074763;28;20247;-71
2022/09/28 05:38:22;;;;;;;15.23;8.80;;;8.20;99.90;;;;;;5075484;28;20206;-71
2022/09/28 05:40:49;;;;;;;17.60;10.30;;;8.10;99.90;;;;;;5081268;28;20547;-72
2022/09/28 05:43:16;;;;;;;12.93;8.73;;;8.10;99.90;;;;;;5080623;28;20208;-72
2022/09/28 05:45:43;;;;;;;16.93;9.93;;;8.10;99.90;;;;;;5081008;28;20266;-72
2022/09/28 05:48:10;;;;;;;16.83;10.00;;;8.10;99.90;;;;;;5077244;28;20386;-72
2022/09/28 05:50:37;;;;;;;17.60;9.60;;;8.00;99.90;;;;;;5081590;28;20223;-72
2022/09/28 05:53:09;;;;;;;18.73;10.30;;;8.00;99.90;;;;;;5081055;28;20690;-71
2022/09/28 05:55:36;;;;;;;17.40;9.63;;;8.10;99.90;;;;;;5081293;28;20649;-71
2022/09/28 05:58:05;;;;;;;19.80;10.60;;;8.00;99.90;;;;;;5071874;28;20767;-71
2022/09/28 06:00:34;;;;;;;20.50;10.90;;;7.90;99.90;;;;;;5065004;28;20235;-72
2022/09/28 06:03:04;;;;;;;20.23;10.87;;;7.90;99.90;;;;;;5082288;28;20307;-71
2022/09/28 06:05:36;;;;;;;20.73;10.93;;;7.90;99.90;;;;;;5076988;28;20204;-72
2022/09/28 06:08:04;;;;;;;18.23;10.13;;;7.70;99.90;;;;;;5082562;28;20257;-71
2022/09/28 06:10:32;;;;;;;18.17;9.90;;;8.20;99.90;;;;;;5064191;28;20204;-71
2022/09/28 06:13:00;;;;;;;20.23;11.67;;;8.00;99.90;;;;;;5080816;28;20551;-72
2022/09/28 06:15:28;;;;;;;28.23;10.90;;;;;;;;;;5075702;28;20205;-71
2022/09/28 06:17:59;;;;;;;20.20;10.73;;;7.90;99.90;;;;;;5063985;28;20275;-71
2022/09/28 06:20:29;;;;;;;25.77;12.90;;;7.90;99.90;;;;;;5063164;28;20205;-71
2022/09/28 06:22:56;;;;;;;30.10;14.73;;;7.90;99.90;;;;;;5063696;28;20233;-72
2022/09/28 06:25:23;;;;;;;29.33;14.97;;;7.90;99.90;;;;;;5080870;28;20337;-70
2022/09/28 06:28:02;;;;;;;26.07;13.13;;;7.90;99.90;;;;;;5049506;28;20235;-72
2022/09/28 06:30:31;;;;;;;26.63;13.10;;;8.00;99.90;;;;;;5079059;28;20209;-71
2022/09/28 06:33:00;;;;;;;23.47;12.77;;;8.00;99.90;;;;;;5077354;28;20226;-72
2022/09/28 06:35:29;;;;;;;26.13;12.60;;;8.00;99.90;;;;;;5066548;28;20635;-70
2022/09/28 06:37:58;;;;;;;22.90;12.17;;;8.00;99.90;;;;;;5060108;28;20200;-71
2022/09/28 06:40:26;;;;;;;23.40;12.57;;;8.00;99.90;;;;;;5066755;28;20750;-72
2022/09/28 06:43:08;;;;;;;20.33;10.90;;;8.10;99.90;;;;;;5081531;28;20486;-71
2022/09/28 06:45:37;;;;;;;27.13;13.73;;;8.10;99.90;;;;;;5074292;28;20225;-72
2022/09/28 06:48:04;;;;;;;26.87;13.00;;;8.20;99.90;;;;;;5077812;28;20200;-71
2022/09/28 06:50:39;;;;;;;26.77;12.73;;;8.30;99.90;;;;;;5079424;28;20617;-72
2022/09/28 06:53:09;;;;;;;27.57;12.33;;;8.50;99.90;;;;;;5082582;28;20205;-72
2022/09/28 06:55:41;;;;;;;24.10;13.10;;;8.60;99.90;;;;;;5086964;28;20187;-71
2022/09/28 06:58:10;;;;;;;23.23;12.67;;;8.90;99.90;;;;;;5074078;28;20216;-70
2022/09/28 07:00:39;;;;;;;16.47;9.83;;;9.10;99.90;;;;;;5082876;28;20224;-71
2022/09/28 07:03:17;;;;;;;13.03;8.57;;;9.20;99.90;;;;;;5078841;28;20641;-70
2022/09/28 07:05:50;;;;;;;12.40;7.70;;;9.30;99.90;;;;;;5081291;28;20289;-70
2022/09/28 07:08:17;;;;;;;11.47;7.23;;;9.50;99.90;;;;;;5079002;28;20698;-71
2022/09/28 07:10:48;;;;;;;9.60;6.93;;;9.70;99.90;;;;;;5080288;28;20234;-71
2022/09/28 07:13:16;;;;;;;8.20;6.10;;;10.30;99.90;;;;;;5084270;28;20200;-70
2022/09/28 07:16:03;;;;;;;7.30;5.40;;;9.90;99.90;;;;;;5059614;28;20224;-70
2022/09/28 07:18:30;;;;;;;7.33;5.37;;;10.00;99.90;;;;;;5077150;28;21000;-70
2022/09/28 07:21:06;;;;;;;6.40;5.27;;;10.00;99.90;;;;;;5082276;28;20254;-71
2022/09/28 07:23:36;;;;;;;8.43;5.67;;;10.00;99.90;;;;;;5077294;28;20207;-70
2022/09/28 07:26:18;;;;;;;7.80;5.13;;;10.10;99.90;;;;;;5080773;28;20229;-71
2022/09/28 07:28:51;;;;;;;7.17;4.97;;;10.20;99.90;;;;;;5078699;28;20214;-71
2022/09/28 07:31:18;;;;;;;6.97;5.10;;;10.30;99.90;;;;;;5079977;28;20227;-71
2022/09/28 07:33:45;;;;;;;7.07;5.27;;;10.40;99.90;;;;;;5083896;28;20240;-71
2022/09/28 07:36:13;;;;;;;6.17;4.97;;;10.50;99.90;;;;;;5079643;28;20207;-72
2022/09/28 07:38:40;;;;;;;8.67;5.20;;;10.80;99.90;;;;;;5079307;28;20669;-70
2022/09/28 07:41:10;;;;;;;8.10;5.07;;;10.90;99.90;;;;;;5077829;28;20205;-71
2022/09/28 07:43:40;;;;;;;6.23;4.67;;;11.10;99.90;;;;;;5063712;28;20620;-71
2022/09/28 07:46:10;;;;;;;5.30;3.80;;;11.20;99.90;;;;;;5081024;28;20290;-70
2022/09/28 07:48:41;;;;;;;5.23;3.77;;;;;;;;;;5063826;28;20203;-71
2022/09/28 07:51:09;;;;;;;5.43;4.20;;;11.70;99.90;;;;;;5079426;28;20205;-70
2022/09/28 07:53:37;;;;;;;4.93;3.40;;;12.00;99.90;;;;;;5077758;28;20198;-71
2022/09/28 07:56:08;;;;;;;5.40;3.80;;;12.20;99.90;;;;;;5082470;28;20266;-71
2022/09/28 07:58:37;;;;;;;4.93;4.10;;;12.30;99.90;;;;;;5062758;28;20318;-71
2022/09/28 08:01:07;;;;;;;4.17;3.30;;;12.30;99.90;;;;;;5084321;28;20227;-72
2022/09/28 08:03:34;;;;;;;4.13;3.37;;;12.40;99.90;;;;;;5081789;28;20196;-71
2022/09/28 08:06:05;;;;;;;6.17;3.87;;;12.40;99.90;;;;;;5078916;28;20203;-72
2022/09/28 08:08:33;;;;;;;4.60;3.60;;;12.30;99.90;;;;;;5078297;28;20564;-72
2022/09/28 08:11:01;;;;;;;6.20;3.87;;;12.30;99.90;;;;;;5074192;28;20703;-71
2022/09/28 08:13:28;;;;;;;7.60;4.90;;;12.10;99.90;;;;;;5074606;28;20246;-71
2022/09/28 08:15:59;;;;;;;5.07;3.30;;;12.00;99.90;;;;;;5074848;28;20212;-72
2022/09/28 08:18:26;;;;;;;4.93;3.53;;;12.00;99.90;;;;;;5080345;28;20220;-71
2022/09/28 08:23:39;;;;;;;5.83;3.20;;;12.00;99.90;;;;;;5079821;28;20205;-72
2022/09/28 08:26:06;;;;;;;6.87;2.70;;;12.20;99.90;;;;;;5058766;28;20218;-71
2022/09/28 08:28:35;;;;;;;4.00;2.70;;;12.60;99.90;;;;;;5062203;28;20601;-71
2022/09/28 08:31:02;;;;;;;3.45;2.53;;;13.20;99.90;;;;;;5066048;28;20248;-71
2022/09/28 08:33:29;;;;;;;5.30;2.83;;;13.80;99.90;;;;;;5075748;28;20301;-72
2022/09/28 08:35:57;;;;;;;3.05;2.40;;;;;;;;;;5062093;28;20677;-73
2022/09/28 08:38:25;;;;;;;2.83;2.45;;;14.80;99.90;;;;;;5074662;28;20222;-71
2022/09/28 08:41:14;;;;;;;4.70;2.30;;;15.20;99.90;;;;;;5060967;28;20298;-70
2022/09/28 08:43:46;;;;;;;2.78;1.92;;;15.60;99.90;;;;;;5084836;28;20295;-70
2022/09/28 08:46:16;;;;;;;3.05;1.80;;;15.80;99.90;;;;;;5075984;28;20207;-71
2022/09/28 08:49:09;;;;;;;3.08;1.88;;;16.00;99.90;;;;;;5077047;28;20200;-70
2022/09/28 08:52:08;;;;;;;3.00;2.20;;;16.30;99.90;;;;;;5080147;28;20788;-71
2022/09/28 08:54:57;;;;;;;3.35;1.60;;;16.40;99.90;;;;;;5074534;28;20246;-70
2022/09/28 08:57:32;;;;;;;1.83;1.70;;;16.70;99.90;;;;;;5073477;28;20200;-70
2022/09/28 09:00:01;;;;;;;6.30;3.25;;;16.90;99.90;;;;;;5076665;28;20218;-71
2022/09/28 09:02:32;;;;;;;3.40;1.77;;;16.90;99.90;;;;;;5078060;28;20307;-71
2022/09/28 09:05:02;;;;;;;2.88;2.22;;;17.30;99.90;;;;;;5081106;28;20656;-71
2022/09/28 09:07:39;;;;;;;2.05;1.50;;;17.50;99.90;;;;;;5076362;28;20259;-71
2022/09/28 09:10:32;;;;;;;1.67;1.27;;;17.60;99.90;;;;;;5074606;28;20278;-71
2022/09/28 09:13:30;;;;;;;3.83;1.30;;;17.80;99.90;;;;;;5078957;28;20200;-72
2022/09/28 09:16:23;;;;;;;1.80;1.30;;;17.90;99.90;;;;;;5075330;28;20216;-71
2022/09/28 09:19:23;;;;;;;4.85;1.20;;;18.10;99.90;;;;;;5077421;28;20668;-71
2022/09/28 09:22:00;;;;;;;2.10;1.30;;;18.10;99.90;;;;;;5074500;28;20219;-71
2022/09/28 09:24:37;;;;;;;3.53;1.23;;;17.80;99.90;;;;;;5071148;28;20287;-71
2022/09/28 09:27:10;;;;;;;1.92;1.27;;;17.30;99.90;;;;;;5077134;28;20595;-72
2022/09/28 09:30:23;;;;;;;2.60;1.17;;;17.20;99.90;;;;;;5073848;28;20208;-71
2022/09/28 09:33:03;;;;;;;1.67;0.80;;;17.20;99.90;;;;;;5053111;28;20596;-70
2022/09/28 09:35:57;;;;;;;3.05;1.00;;;17.30;99.90;;;;;;5034563;28;20213;-71
2022/09/28 09:38:35;;;;;;;2.28;0.85;;;17.40;99.90;;;;;;5040300;28;20768;-70
2022/09/28 09:41:15;;;;;;;2.33;0.90;;;17.20;99.90;;;;;;5029968;28;20206;-71
2022/09/28 09:44:10;;;;;;;1.27;0.80;;;17.10;99.90;;;;;;5036092;28;20241;-72
2022/09/28 09:46:40;;;;;;;2.65;1.05;;;16.90;99.90;;;;;;5036879;28;20315;-72
2022/09/28 09:49:35;;;;;;;1.05;0.70;;;16.60;99.90;;;;;;5037613;28;20204;-72
2022/09/28 09:52:19;;;;;;;5.97;2.13;;;16.40;99.90;;;;;;5034875;28;20241;-71
2022/09/28 09:55:01;;;;;;;4.50;1.30;;;16.20;99.90;;;;;;5034750;28;20213;-72
2022/09/28 09:57:38;;;;;;;1.60;0.93;;;16.20;99.90;;;;;;5042042;28;20620;-71
2022/09/28 10:00:13;;;;;;;2.72;1.00;;;16.20;99.90;;;;;;5033101;28;20313;-70
2022/09/28 10:02:42;;;;;;;1.75;0.70;;;16.30;99.90;;;;;;5036699;28;20290;-71
2022/09/28 10:05:12;;;;;;;2.78;0.80;;;16.50;99.90;;;;;;5037501;28;20276;-72
2022/09/28 10:07:50;;;;;;;2.58;1.30;;;16.50;99.90;;;;;;5035000;28;20229;-69
2022/09/28 10:10:35;;;;;;;2.17;0.88;;;16.50;99.90;;;;;;5036646;28;20202;-72
2022/09/28 10:13:03;;;;;;;1.83;1.00;;;16.50;99.90;;;;;;5049218;28;20299;-71
2022/09/28 10:15:34;;;;;;;1.70;0.95;;;16.40;99.90;;;;;;5035273;28;20195;-72
2022/09/28 10:18:05;;;;;;;2.70;0.73;;;16.30;99.90;;;;;;5038697;28;20305;-72
2022/09/28 10:20:38;;;;;;;2.72;0.73;;;16.20;99.90;;;;;;5038428;28;20327;-71
2022/09/28 10:23:11;;;;;;;0.85;0.80;;;16.10;99.90;;;;;;5033258;28;20241;-72
2022/09/28 10:25:39;;;;;;;2.65;0.82;;;15.90;99.90;;;;;;5035706;28;20247;-72
2022/09/28 10:28:13;;;;;;;2.25;0.85;;;15.80;99.90;;;;;;5032901;28;20642;-72
2022/09/28 10:30:42;;;;;;;1.33;1.23;;;15.70;99.90;;;;;;5039211;28;20216;-71
2022/09/28 10:33:31;;;;;;;1.40;0.90;;;15.60;99.90;;;;;;5061984;28;20260;-71
2022/09/28 10:35:59;;;;;;;1.30;0.70;;;15.60;99.90;;;;;;5079548;28;20204;-72
2022/09/28 10:38:29;;;;;;;1.95;0.82;;;15.50;99.90;;;;;;5077766;28;20476;-71
2022/09/28 10:41:00;;;;;;;1.60;0.60;;;15.40;99.90;;;;;;5076174;28;20208;-72
2022/09/28 10:43:29;;;;;;;1.77;0.55;;;15.50;99.90;;;;;;5075061;28;20223;-72
2022/09/28 10:46:22;;;;;;;0.50;0.50;;;15.60;99.90;;;;;;5079933;28;20219;-72
2022/09/28 10:49:05;;;;;;;2.42;0.70;;;15.80;99.90;;;;;;5079206;28;20230;-72
2022/09/28 10:51:45;;;;;;;2.05;0.70;;;15.80;99.90;;;;;;5077647;28;20207;-71
2022/09/28 10:54:23;;;;;;;0.98;0.63;;;15.70;99.90;;;;;;5076290;28;20243;-70
2022/09/28 10:56:52;;;;;;;1.80;0.68;;;15.70;99.90;;;;;;5072526;28;20652;-72
2022/09/28 10:59:29;;;;;;;0.50;0.50;;;15.70;99.90;;;;;;5085117;28;21019;-72
2022/09/28 11:02:00;;;;;;;2.45;0.70;;;15.80;99.90;;;;;;5077949;28;20226;-71
2022/09/28 11:04:32;;;;;;;2.83;0.80;;;15.90;99.90;;;;;;5080070;28;20740;-73
2022/09/28 11:07:00;;;;;;;2.10;0.60;;;15.80;99.90;;;;;;5064504;28;20222;-71
2022/09/28 11:09:30;;;;;;;0.50;0.50;;;15.70;99.90;;;;;;5079946;28;20192;-71
2022/09/28 11:11:58;;;;;;;0.75;0.70;;;15.70;99.90;;;;;;5064474;28;20204;-72
2022/09/28 11:14:37;;;;;;;0.70;0.60;;;15.80;99.90;;;;;;5054648;28;20300;-72
2022/09/28 11:17:23;;;;;;;1.00;0.90;;;15.90;99.90;;;;;;5082245;28;20220;-71
2022/09/28 11:19:51;;;;;;;0.95;0.60;;;16.10;99.90;;;;;;5076098;28;20208;-72
2022/09/28 11:22:43;;;;;;;0.88;0.60;;;16.20;99.90;;;;;;5077702;28;20215;-71
2022/09/28 11:25:16;;;;;;;0.63;0.57;;;16.30;99.90;;;;;;5069057;28;20294;-71
2022/09/28 11:27:51;;;;;;;2.85;0.60;;;16.20;99.90;;;;;;5073727;28;20224;-71
2022/09/28 11:30:24;;;;;;;0.98;0.80;;;16.20;99.90;;;;;;5060934;28;20728;-72
2022/09/28 11:32:54;;;;;;;1.92;0.52;;;16.20;99.90;;;;;;5080414;28;20692;-72
2022/09/28 11:36:06;;;;;;;1.95;0.50;;;16.20;99.90;;;;;;5074260;28;20299;-72
2022/09/28 11:39:08;;;;;;;0.50;0.50;;;16.40;99.90;;;;;;5060276;28;20661;-71
2022/09/28 11:41:51;;;;;;;1.27;0.50;;;16.50;99.90;;;;;;5048172;28;20653;-72
2022/09/28 11:44:46;;;;;;;0.50;0.40;;;16.90;99.90;;;;;;5064853;28;20211;-72
2022/09/28 11:47:40;;;;;;;0.73;0.63;;;17.30;99.90;;;;;;5070485;28;20221;-72
2022/09/28 11:50:20;;;;;;;0.40;0.40;;;17.60;99.90;;;;;;5085978;28;20203;-72
2022/09/28 11:53:11;;;;;;;1.85;0.60;;;17.70;99.90;;;;;;5087043;28;20215;-72
2022/09/28 11:55:46;;;;;;;0.43;0.43;;;17.70;99.90;;;;;;5065870;28;20315;-72
2022/09/28 11:58:31;;;;;;;1.55;0.60;;;17.50;99.90;;;;;;5063179;28;20566;-72
2022/09/28 12:01:37;;;;;;;0.50;0.40;;;17.40;99.90;;;;;;5084424;28;20219;-72
2022/09/28 12:04:25;;;;;;;1.02;0.45;;;17.40;99.90;;;;;;5072013;28;20567;-72
2022/09/28 12:06:58;;;;;;;2.15;0.43;;;17.30;99.90;;;;;;5080720;28;20299;-72
2022/09/28 12:09:42;;;;;;;0.45;0.45;;;17.20;99.90;;;;;;5082773;28;20291;-71
2022/09/28 12:12:36;;;;;;;2.35;0.50;;;17.20;99.90;;;;;;5064435;28;20649;-71
2022/09/28 12:15:15;;;;;;;0.60;0.55;;;17.10;99.90;;;;;;5080819;28;20742;-73
2022/09/28 12:17:48;;;;;;;0.85;0.63;;;17.00;99.90;;;;;;5079993;28;20269;-72
2022/09/28 12:20:21;;;;;;;0.43;0.43;;;17.20;99.90;;;;;;5063535;28;20199;-72
2022/09/28 12:23:02;;;;;;;1.05;0.50;;;17.30;99.90;;;;;;5083283;28;20300;-72
2022/09/28 12:25:39;;;;;;;1.60;0.43;;;17.40;99.90;;;;;;5083418;28;20644;-73
2022/09/28 12:28:17;;;;;;;3.35;0.70;;;17.30;99.90;;;;;;5061443;28;20781;-71
2022/09/28 12:30:46;;;;;;;0.80;0.50;;;17.50;99.90;;;;;;5062846;28;20247;-72
2022/09/28 12:33:14;;;;;;;0.57;0.50;;;17.50;99.90;;;;;;5077206;28;20217;-73
2022/09/28 12:35:53;;;;;;;0.40;0.40;;;17.70;99.90;;;;;;5071800;28;20212;-72
2022/09/28 12:38:32;;;;;;;1.17;0.50;;;17.90;99.90;;;;;;5078084;28;20249;-71
2022/09/28 12:41:05;;;;;;;0.88;0.40;;;18.10;99.90;;;;;;5077922;28;20848;-70
2022/09/28 12:44:23;;;;;;;1.38;0.50;;;18.20;99.90;;;;;;5077589;28;20200;-72
2022/09/28 12:47:19;;;;;;;1.52;0.50;;;18.20;99.90;;;;;;5020090;28;20500;-71
2022/09/28 12:50:17;;;;;;;1.20;0.50;;;18.30;99.90;;;;;;5082068;28;20212;-71
2022/09/28 12:53:32;;;;;;;0.98;0.60;;;18.60;99.90;;;;;;5062294;28;20303;-71
2022/09/28 12:56:21;;;;;;;1.75;0.40;;;18.80;99.90;;;;;;5076096;28;20335;-71
2022/09/28 12:59:19;;;;;;;0.95;0.50;;;19.10;99.90;;;;;;5071604;28;20611;-71
2022/09/28 13:02:11;;;;;;;0.50;0.50;;;19.40;99.90;;;;;;5029534;28;20215;-72
2022/09/28 13:04:59;;;;;;;0.80;0.50;;;19.30;99.90;;;;;;5076310;28;20211;-71
2022/09/28 13:07:54;;;;;;;0.40;0.40;;;19.20;99.90;;;;;;5076974;28;20215;-72
2022/09/28 13:10:50;;;;;;;1.20;0.90;;;19.10;99.90;;;;;;5059362;28;20211;-71
2022/09/28 13:13:26;;;;;;;1.23;0.50;;;18.80;99.90;;;;;;5031440;28;20211;-71
2022/09/28 13:16:16;;;;;;;1.48;0.55;;;18.50;99.90;;;;;;5071703;28;20696;-71
2022/09/28 13:19:24;;;;;;;1.38;0.57;;;18.20;99.90;;;;;;5076869;28;20203;-71
2022/09/28 13:22:15;;;;;;;1.10;0.65;;;17.80;99.90;;;;;;5078412;28;20232;-72
2022/09/28 13:24:45;;;;;;;1.00;0.50;;;17.50;99.90;;;;;;5074078;28;20290;-72
2022/09/28 13:27:22;;;;;;;1.00;0.60;;;17.20;99.90;;;;;;5064618;28;20278;-71
2022/09/28 13:29:52;;;;;;;0.95;0.60;;;17.00;99.90;;;;;;5080682;28;20636;-71